Time;durP1;ratioP1;P1;durP2;ratioP2;P2;SDS_P1;SDS_P2;PMS_P1;PMS_P2;Temp;Humidity;BMP_temperature;BMP_pressure;BME280_temperature;BME280_humidity;BME280_pressure;Samples;Min_cycle;Max_cycle;Signal;HPM_P1;HPM_P2
2022/04/29 00:02:00;;;;;;;5.55;2.75;;;10.00;56.40;;;;;;5036302;28;20423;-78
2022/04/29 00:04:26;;;;;;;3.88;2.58;;;10.00;56.50;;;;;;5036297;28;20042;-78
2022/04/29 00:06:52;;;;;;;7.05;3.63;;;10.00;56.50;;;;;;5036370;28;20079;-77
2022/04/29 00:09:18;;;;;;;5.82;3.47;;;10.00;56.50;;;;;;5036059;28;20053;-77
2022/04/29 00:11:44;;;;;;;5.15;3.00;;;9.90;56.50;;;;;;5034651;28;20045;-77
2022/04/29 00:14:10;;;;;;;4.93;3.22;;;9.90;56.50;;;;;;5035873;28;20052;-77
2022/04/29 00:16:35;;;;;;;5.53;3.58;;;9.90;56.60;;;;;;5034939;28;20044;-77
2022/04/29 00:19:01;;;;;;;5.28;2.90;;;9.80;56.60;;;;;;5035188;28;20042;-77
2022/04/29 00:21:27;;;;;;;4.78;3.45;;;9.90;56.70;;;;;;5035433;28;20057;-77
2022/04/29 00:23:53;;;;;;;5.47;2.72;;;9.90;56.70;;;;;;5035676;28;20038;-77
2022/04/29 00:26:18;;;;;;;5.03;2.90;;;9.90;56.70;;;;;;5036265;28;20415;-77
2022/04/29 00:28:44;;;;;;;5.28;3.25;;;9.80;56.70;;;;;;5035566;28;20046;-77
2022/04/29 00:31:09;;;;;;;4.35;2.92;;;9.80;56.70;;;;;;5035764;28;20046;-77
2022/04/29 00:33:35;;;;;;;5.93;3.13;;;9.80;56.70;;;;;;5067859;28;20053;-77
2022/04/29 00:36:01;;;;;;;6.38;2.90;;;9.80;56.80;;;;;;5067707;28;20507;-78
2022/04/29 00:38:26;;;;;;;7.18;3.47;;;9.80;56.80;;;;;;5035431;28;20080;-77
2022/04/29 00:40:52;;;;;;;5.50;3.10;;;9.80;56.80;;;;;;5035489;28;20136;-78
2022/04/29 00:43:18;;;;;;;5.57;2.90;;;9.70;56.70;;;;;;5035419;28;20041;-78
2022/04/29 00:45:43;;;;;;;5.85;2.72;;;9.80;56.80;;;;;;5035480;28;20041;-78
2022/04/29 00:48:10;;;;;;;4.93;2.58;;;9.70;57.20;;;;;;5066614;28;20099;-77
2022/04/29 00:50:35;;;;;;;6.75;3.30;;;9.70;56.90;;;;;;5067558;28;20397;-78
2022/04/29 00:53:02;;;;;;;5.43;3.67;;;9.60;56.80;;;;;;5035399;28;20038;-77
2022/04/29 00:55:29;;;;;;;5.65;3.33;;;9.70;56.90;;;;;;5035106;28;20468;-78
2022/04/29 00:58:17;;;;;;;5.03;3.25;;;9.60;56.90;;;;;;5035081;28;20057;-77
2022/04/29 01:00:43;;;;;;;5.70;3.20;;;9.60;56.90;;;;;;5066802;28;20076;-78
2022/04/29 01:03:12;;;;;;;6.40;3.03;;;9.60;56.90;;;;;;5035106;28;20091;-78
2022/04/29 01:05:39;;;;;;;7.15;3.15;;;9.60;57.00;;;;;;5033927;28;20049;-78
2022/04/29 01:08:05;;;;;;;4.90;3.13;;;9.50;57.00;;;;;;5035002;28;20038;-78
2022/04/29 01:10:31;;;;;;;4.93;3.33;;;9.50;57.00;;;;;;5034721;28;20485;-78
2022/04/29 01:12:59;;;;;;;9.68;4.15;;;9.50;57.10;;;;;;5035010;28;20091;-78
2022/04/29 01:15:25;;;;;;;6.22;3.38;;;9.50;57.10;;;;;;5035076;28;20128;-78
2022/04/29 01:17:55;;;;;;;5.15;3.47;;;9.40;57.10;;;;;;5034634;28;20488;-78
2022/04/29 01:20:25;;;;;;;5.47;3.08;;;9.50;57.20;;;;;;5034423;28;20046;-77
2022/04/29 01:22:51;;;;;;;5.18;3.08;;;9.40;57.10;;;;;;5032731;28;20536;-77
2022/04/29 01:25:16;;;;;;;6.95;3.70;;;9.40;57.20;;;;;;5066602;28;20073;-76
2022/04/29 01:27:42;;;;;;;6.93;4.38;;;9.40;57.20;;;;;;5034622;28;20088;-75
2022/04/29 01:30:11;;;;;;;6.93;3.75;;;9.40;57.20;;;;;;5035124;28;20042;-77
2022/04/29 01:32:39;;;;;;;4.90;3.08;;;9.30;57.20;;;;;;5067618;28;20038;-77
2022/04/29 01:35:06;;;;;;;4.15;3.13;;;9.30;57.20;;;;;;5035106;28;20092;-77
2022/04/29 01:37:31;;;;;;;5.10;3.42;;;9.30;57.30;;;;;;5037939;28;20083;-77
2022/04/29 01:39:57;;;;;;;5.00;3.08;;;9.20;57.20;;;;;;5036714;28;20057;-76
2022/04/29 01:42:23;;;;;;;6.63;4.13;;;9.20;57.30;;;;;;5038037;28;20049;-77
2022/04/29 01:44:49;;;;;;;6.80;3.70;;;9.20;57.30;;;;;;5040017;28;20476;-77
2022/04/29 01:47:15;;;;;;;4.80;3.67;;;9.20;57.40;;;;;;5038950;28;20072;-77
2022/04/29 01:49:41;;;;;;;5.38;3.75;;;9.20;57.40;;;;;;5066328;28;20042;-77
2022/04/29 01:52:08;;;;;;;6.75;3.90;;;9.10;57.40;;;;;;5033858;28;20073;-77
2022/04/29 01:54:38;;;;;;;7.22;3.50;;;9.10;57.50;;;;;;5034163;28;20132;-76
2022/04/29 01:57:06;;;;;;;4.22;3.42;;;9.10;57.50;;;;;;5034190;28;20049;-76
2022/04/29 01:59:33;;;;;;;5.88;3.60;;;9.10;57.60;;;;;;5033915;28;20060;-76
2022/04/29 02:01:59;;;;;;;6.75;3.60;;;9.10;57.60;;;;;;5034110;28;20037;-76
2022/04/29 02:04:25;;;;;;;6.55;3.47;;;9.00;57.60;;;;;;5032953;28;20041;-77
2022/04/29 02:06:51;;;;;;;5.85;3.60;;;9.00;57.70;;;;;;5032194;28;20054;-77
2022/04/29 02:09:17;;;;;;;6.15;3.75;;;9.00;57.80;;;;;;5033821;28;20052;-77
2022/04/29 02:14:27;;;;;;;5.85;3.65;;;8.90;57.90;;;;;;5032612;28;20083;-77
2022/04/29 02:16:53;;;;;;;5.53;3.63;;;8.90;57.90;;;;;;5033893;28;20439;-77
2022/04/29 02:19:19;;;;;;;7.20;3.63;;;8.90;57.90;;;;;;5032537;28;20037;-76
2022/04/29 02:21:44;;;;;;;6.47;4.20;;;8.90;57.90;;;;;;5033465;28;20057;-77
2022/04/29 02:24:10;;;;;;;6.53;4.45;;;8.90;58.00;;;;;;5065721;28;20049;-77
2022/04/29 02:26:35;;;;;;;5.25;3.90;;;8.90;58.00;;;;;;5033688;28;20068;-78
2022/04/29 02:29:01;;;;;;;7.38;3.83;;;8.90;58.00;;;;;;5033544;28;20088;-78
2022/04/29 02:31:27;;;;;;;6.40;3.88;;;8.90;58.00;;;;;;5033148;28;20052;-77
2022/04/29 02:33:52;;;;;;;8.02;3.97;;;8.90;58.00;;;;;;5033665;28;20056;-78
2022/04/29 02:36:18;;;;;;;6.97;3.78;;;8.90;58.10;;;;;;5033638;28;20124;-76
2022/04/29 02:38:44;;;;;;;7.78;4.50;;;8.90;58.10;;;;;;5033508;28;20397;-76
2022/04/29 02:41:10;;;;;;;7.32;4.40;;;8.90;58.10;;;;;;5065670;28;20400;-76
2022/04/29 02:43:36;;;;;;;6.43;4.60;;;8.80;58.10;;;;;;5032511;28;20082;-76
2022/04/29 02:46:02;;;;;;;7.63;3.95;;;8.90;58.20;;;;;;5065865;28;20050;-76
2022/04/29 02:48:28;;;;;;;8.20;4.13;;;8.80;58.20;;;;;;5033589;28;20052;-76
2022/04/29 02:50:53;;;;;;;6.90;5.38;;;8.80;58.20;;;;;;5033394;28;20048;-77
2022/04/29 02:53:19;;;;;;;5.78;4.28;;;8.80;58.30;;;;;;5032659;28;20045;-78
2022/04/29 02:55:45;;;;;;;7.65;4.32;;;8.80;58.30;;;;;;5033688;28;20045;-78
2022/04/29 02:58:11;;;;;;;9.40;4.47;;;8.70;58.30;;;;;;5033581;28;20037;-78
2022/04/29 03:00:38;;;;;;;7.75;4.35;;;8.70;58.30;;;;;;5033417;28;20159;-78
2022/04/29 03:03:04;;;;;;;4.63;3.58;;;8.70;58.40;;;;;;5034710;28;20052;-78
2022/04/29 03:05:29;;;;;;;6.90;4.22;;;8.70;58.50;;;;;;5037198;28;20049;-77
2022/04/29 03:07:55;;;;;;;5.93;4.70;;;8.70;58.50;;;;;;5037190;28;20037;-77
2022/04/29 03:10:21;;;;;;;6.95;4.93;;;8.70;58.50;;;;;;5037142;28;20536;-78
2022/04/29 03:12:46;;;;;;;8.52;4.70;;;8.70;58.50;;;;;;5037367;28;20053;-78
2022/04/29 03:15:18;;;;;;;7.18;4.30;;;8.70;58.50;;;;;;5035784;28;20049;-78
2022/04/29 03:20:35;;;;;;;7.22;4.28;;;8.70;58.80;;;;;;5036566;28;20107;-77
2022/04/29 03:23:02;;;;;;;7.78;5.00;;;8.60;58.40;;;;;;5034927;28;20107;-77
2022/04/29 03:25:27;;;;;;;6.57;5.03;;;8.60;58.40;;;;;;5035861;28;20045;-77
2022/04/29 03:27:53;;;;;;;6.78;4.50;;;8.60;58.40;;;;;;5036764;28;20432;-76
2022/04/29 03:30:19;;;;;;;7.80;4.40;;;8.50;58.40;;;;;;5068643;28;20047;-76
2022/04/29 03:32:59;;;;;;;5.38;4.20;;;8.60;58.50;;;;;;5036811;28;20390;-76
2022/04/29 03:35:25;;;;;;;6.20;4.40;;;8.60;58.50;;;;;;5068757;28;20432;-76
2022/04/29 03:37:52;;;;;;;6.07;4.35;;;8.60;58.50;;;;;;5035384;28;20041;-76
2022/04/29 03:40:22;;;;;;;8.70;4.93;;;8.60;58.50;;;;;;5036768;28;20033;-76
2022/04/29 03:42:57;;;;;;;5.60;4.57;;;8.60;58.50;;;;;;5036467;28;20085;-76
2022/04/29 03:45:25;;;;;;;7.13;5.50;;;8.60;58.60;;;;;;5036460;28;20049;-76
2022/04/29 03:47:50;;;;;;;5.85;5.15;;;8.50;58.50;;;;;;5035312;28;20083;-77
2022/04/29 03:50:17;;;;;;;7.35;4.75;;;8.50;58.60;;;;;;5036361;28;20073;-77
2022/04/29 03:52:52;;;;;;;6.57;4.82;;;8.50;58.90;;;;;;5035218;28;20420;-77
2022/04/29 03:55:19;;;;;;;8.80;5.75;;;8.60;58.70;;;;;;5036408;28;20571;-77
2022/04/29 03:57:45;;;;;;;9.10;5.68;;;8.50;58.60;;;;;;5036203;28;20052;-77
2022/04/29 04:00:13;;;;;;;8.48;5.05;;;8.50;58.60;;;;;;5035998;28;20042;-77
2022/04/29 04:02:39;;;;;;;7.55;5.45;;;8.50;58.60;;;;;;5036165;28;20087;-77
2022/04/29 04:05:05;;;;;;;7.32;5.25;;;8.50;58.70;;;;;;5035260;28;20526;-77
2022/04/29 04:07:31;;;;;;;7.20;4.85;;;8.50;58.70;;;;;;5036093;28;20396;-76
2022/04/29 04:09:57;;;;;;;8.95;5.35;;;8.50;59.10;;;;;;5036016;28;20041;-76
2022/04/29 04:12:24;;;;;;;8.15;5.60;;;8.50;58.80;;;;;;5035957;28;20044;-76
2022/04/29 04:14:50;;;;;;;9.38;5.85;;;8.50;58.80;;;;;;5035578;28;20049;-76
2022/04/29 04:17:16;;;;;;;7.90;4.63;;;8.50;58.90;;;;;;5035677;28;20053;-76
2022/04/29 04:19:41;;;;;;;8.68;5.20;;;8.40;58.90;;;;;;5035366;28;20052;-76
2022/04/29 04:22:07;;;;;;;8.02;5.18;;;8.50;58.90;;;;;;5067714;28;20432;-76
2022/04/29 04:24:33;;;;;;;9.52;5.60;;;8.50;59.00;;;;;;5067925;28;20374;-76
2022/04/29 04:26:58;;;;;;;7.97;5.30;;;8.50;59.00;;;;;;5068080;28;20045;-76
2022/04/29 04:29:24;;;;;;;7.07;4.95;;;8.50;59.10;;;;;;5035658;28;20072;-76
2022/04/29 04:31:51;;;;;;;8.02;5.03;;;8.50;59.10;;;;;;5035489;28;20041;-76
2022/04/29 04:37:23;;;;;;;7.95;4.85;;;8.50;59.10;;;;;;5033456;28;20060;-76
2022/04/29 04:39:50;;;;;;;7.90;5.10;;;8.50;59.10;;;;;;5016950;28;20508;-76
2022/04/29 04:42:16;;;;;;;10.18;6.40;;;8.50;59.20;;;;;;5033192;28;20057;-76
2022/04/29 04:44:42;;;;;;;8.43;5.90;;;8.50;59.40;;;;;;5033106;28;20184;-76
2022/04/29 04:47:08;;;;;;;9.10;6.13;;;8.50;59.60;;;;;;5033241;28;20511;-76
2022/04/29 04:49:34;;;;;;;10.30;6.50;;;8.50;59.80;;;;;;5016383;28;20057;-76
2022/04/29 04:52:00;;;;;;;9.20;6.43;;;8.50;59.80;;;;;;5016663;28;20057;-77
2022/04/29 04:54:26;;;;;;;9.43;6.25;;;8.40;60.10;;;;;;5016783;28;20076;-77
2022/04/29 04:56:51;;;;;;;10.05;7.05;;;8.30;60.30;;;;;;5016828;28;20046;-76
2022/04/29 04:59:17;;;;;;;9.10;6.57;;;8.30;60.60;;;;;;5016417;28;20053;-77
2022/04/29 05:01:43;;;;;;;11.18;6.93;;;8.30;61.00;;;;;;5016397;28;20057;-77
2022/04/29 05:04:09;;;;;;;11.43;6.60;;;8.20;61.30;;;;;;5016135;28;20052;-77
2022/04/29 05:06:37;;;;;;;13.35;6.85;;;8.20;61.40;;;;;;5032879;28;20129;-77
2022/04/29 05:09:03;;;;;;;11.73;6.88;;;8.10;61.60;;;;;;5034840;28;20062;-77
2022/04/29 05:11:29;;;;;;;11.52;6.50;;;8.10;61.90;;;;;;5034821;28;20061;-77
2022/04/29 05:13:55;;;;;;;11.98;7.13;;;8.10;62.20;;;;;;5034787;28;20042;-77
2022/04/29 05:16:20;;;;;;;8.95;6.47;;;8.20;62.50;;;;;;5034696;28;20041;-76
2022/04/29 05:18:46;;;;;;;10.90;6.15;;;8.10;62.60;;;;;;5034936;28;20092;-77
2022/04/29 05:21:11;;;;;;;13.35;6.53;;;8.10;62.90;;;;;;5066443;28;20435;-77
2022/04/29 05:23:37;;;;;;;8.48;6.43;;;8.10;62.90;;;;;;5034827;28;20131;-77
2022/04/29 05:26:03;;;;;;;8.05;5.88;;;8.10;63.20;;;;;;5033331;28;20041;-78
2022/04/29 05:28:29;;;;;;;10.40;5.97;;;8.10;63.30;;;;;;5035190;28;20041;-77
2022/04/29 05:30:56;;;;;;;9.80;6.18;;;8.10;63.50;;;;;;5034443;28;20041;-77
2022/04/29 05:33:25;;;;;;;14.30;6.05;;;8.10;63.60;;;;;;5034700;28;20041;-77
2022/04/29 05:35:51;;;;;;;7.70;5.68;;;8.10;63.70;;;;;;5034817;28;20081;-77
2022/04/29 05:38:17;;;;;;;11.73;5.80;;;8.20;63.80;;;;;;5033653;28;20387;-78
2022/04/29 05:43:30;;;;;;;8.70;5.88;;;8.20;63.60;;;;;;5034159;28;20041;-78
2022/04/29 05:45:55;;;;;;;13.43;6.50;;;8.30;63.60;;;;;;5034449;28;20443;-77
2022/04/29 05:48:21;;;;;;;10.43;6.63;;;8.30;63.60;;;;;;5033230;28;20071;-77
2022/04/29 05:50:48;;;;;;;8.07;6.03;;;8.40;63.80;;;;;;5034093;28;20041;-77
2022/04/29 05:53:15;;;;;;;9.60;6.20;;;8.40;63.80;;;;;;5034404;28;20440;-78
2022/04/29 05:55:41;;;;;;;9.43;5.72;;;8.50;63.90;;;;;;5034161;28;20041;-77
2022/04/29 05:58:07;;;;;;;11.25;6.47;;;8.50;63.90;;;;;;5034154;28;20128;-77
2022/04/29 06:00:33;;;;;;;9.57;5.22;;;8.50;63.80;;;;;;5033573;28;20451;-77
2022/04/29 06:02:59;;;;;;;9.27;5.70;;;8.60;63.90;;;;;;5034390;28;20049;-77
2022/04/29 06:05:25;;;;;;;8.52;4.88;;;8.60;63.80;;;;;;5039250;28;20050;-77
2022/04/29 06:07:51;;;;;;;8.85;5.47;;;8.70;63.80;;;;;;5037197;28;20041;-77
2022/04/29 06:10:16;;;;;;;11.00;5.93;;;8.70;63.90;;;;;;5037002;28;20041;-78
2022/04/29 06:12:43;;;;;;;9.18;5.88;;;8.80;64.10;;;;;;5033365;28;20049;-77
2022/04/29 06:15:17;;;;;;;10.90;6.63;;;8.80;64.30;;;;;;5034268;28;20056;-76
2022/04/29 06:17:43;;;;;;;10.35;7.32;;;8.90;64.50;;;;;;5033924;28;20049;-77
2022/04/29 06:20:10;;;;;;;12.40;6.63;;;8.90;64.50;;;;;;5033414;28;20065;-76
2022/04/29 06:22:45;;;;;;;11.15;6.30;;;8.90;64.60;;;;;;5033859;28;20444;-76
2022/04/29 06:25:11;;;;;;;11.65;6.78;;;8.90;64.90;;;;;;5032484;28;20045;-76
2022/04/29 06:27:37;;;;;;;12.60;7.13;;;9.00;64.90;;;;;;5032907;28;20095;-76
2022/04/29 06:30:03;;;;;;;7.50;6.10;;;9.00;64.90;;;;;;5033794;28;20389;-76
2022/04/29 06:32:29;;;;;;;12.75;6.50;;;9.00;64.90;;;;;;5033794;28;20125;-77
2022/04/29 06:34:54;;;;;;;10.95;6.00;;;9.00;65.10;;;;;;5033604;28;20133;-77
2022/04/29 06:37:21;;;;;;;9.77;6.35;;;9.00;65.30;;;;;;5035482;28;20045;-76
2022/04/29 06:39:47;;;;;;;11.05;6.30;;;9.00;64.70;;;;;;5036657;28;20053;-75
2022/04/29 06:42:12;;;;;;;10.30;6.57;;;9.00;64.80;;;;;;5037549;28;20045;-76
2022/04/29 06:44:38;;;;;;;12.02;6.10;;;9.00;64.80;;;;;;5068913;28;20046;-76
2022/04/29 06:47:04;;;;;;;12.20;5.90;;;9.00;64.90;;;;;;5037568;28;20052;-76
2022/04/29 06:49:30;;;;;;;9.68;5.80;;;9.00;65.10;;;;;;5037901;28;20095;-76
2022/04/29 06:51:56;;;;;;;10.65;6.22;;;9.00;65.20;;;;;;5069762;28;20089;-76
2022/04/29 06:54:21;;;;;;;9.57;6.28;;;9.00;65.20;;;;;;5037321;28;20084;-76
2022/04/29 06:56:47;;;;;;;13.70;6.85;;;9.00;65.30;;;;;;5037308;28;20060;-76
2022/04/29 06:59:12;;;;;;;12.57;6.35;;;9.00;65.50;;;;;;5037337;28;20041;-76
2022/04/29 07:01:38;;;;;;;12.45;5.95;;;9.00;65.40;;;;;;5069398;28;20515;-76
2022/04/29 07:04:04;;;;;;;8.68;5.28;;;9.10;65.40;;;;;;5069364;28;20091;-76
2022/04/29 07:06:31;;;;;;;8.43;5.30;;;9.10;65.40;;;;;;5052176;28;20049;-76
2022/04/29 07:08:57;;;;;;;8.57;5.70;;;9.10;65.20;;;;;;5035859;28;20416;-77
2022/04/29 07:11:25;;;;;;;10.98;5.72;;;9.10;64.90;;;;;;5035787;28;20091;-77
2022/04/29 07:13:52;;;;;;;8.57;5.30;;;9.20;64.80;;;;;;5069087;28;20496;-76
2022/04/29 07:16:19;;;;;;;11.50;6.25;;;9.20;65.00;;;;;;5069337;28;20052;-76
2022/04/29 07:18:45;;;;;;;9.05;5.60;;;9.30;64.60;;;;;;5036878;28;20538;-76
2022/04/29 07:21:10;;;;;;;9.68;4.55;;;9.30;64.30;;;;;;5068733;28;20054;-76
2022/04/29 07:23:36;;;;;;;6.85;5.13;;;9.40;64.00;;;;;;5036998;28;20045;-77
2022/04/29 07:26:02;;;;;;;9.90;5.40;;;9.40;63.90;;;;;;5052331;28;20057;-75
2022/04/29 07:28:28;;;;;;;8.57;4.78;;;9.50;63.70;;;;;;5036802;28;20037;-77
2022/04/29 07:30:56;;;;;;;10.70;5.50;;;9.50;63.50;;;;;;5036198;28;20092;-76
2022/04/29 07:33:22;;;;;;;9.55;5.30;;;9.60;63.50;;;;;;5036684;28;20507;-77
2022/04/29 07:44:03;;;;;;;10.02;4.35;;;9.90;63.00;;;;;;5036686;28;20045;-78
2022/04/29 07:46:29;;;;;;;9.63;4.10;;;10.00;62.50;;;;;;5036523;28;20416;-78
2022/04/29 07:48:55;;;;;;;7.50;3.28;;;10.10;62.20;;;;;;5034815;28;20047;-77
2022/04/29 07:51:20;;;;;;;8.10;4.00;;;10.20;61.70;;;;;;5036352;28;20089;-77
2022/04/29 07:53:46;;;;;;;5.70;3.88;;;10.30;62.10;;;;;;5036284;28;20040;-77
2022/04/29 07:56:12;;;;;;;8.02;3.03;;;10.50;61.60;;;;;;5036569;28;20049;-79
2022/04/29 07:58:38;;;;;;;6.60;3.00;;;10.70;60.50;;;;;;5068693;28;20046;-78
2022/04/29 08:01:09;;;;;;;6.07;3.03;;;10.80;59.80;;;;;;5034910;28;20408;-78
2022/04/29 08:03:36;;;;;;;6.82;3.85;;;10.90;59.00;;;;;;5036350;28;20053;-77
2022/04/29 08:06:04;;;;;;;6.10;3.30;;;11.00;59.00;;;;;;5036305;28;20378;-78
2022/04/29 08:08:30;;;;;;;5.30;2.92;;;11.10;59.10;;;;;;5036247;28;20076;-78
2022/04/29 08:10:56;;;;;;;4.72;2.78;;;11.30;58.60;;;;;;5068327;28;20453;-78
2022/04/29 08:13:22;;;;;;;9.55;3.72;;;11.40;57.80;;;;;;5068120;28;20041;-78
2022/04/29 08:15:50;;;;;;;5.90;3.08;;;11.60;57.40;;;;;;5068581;28;20124;-78
2022/04/29 08:18:17;;;;;;;5.28;3.50;;;11.70;57.40;;;;;;5036070;28;20029;-79
2022/04/29 08:20:46;;;;;;;5.95;3.00;;;11.70;57.50;;;;;;5034627;28;20077;-78
2022/04/29 08:23:12;;;;;;;5.28;2.58;;;11.90;57.10;;;;;;5035892;28;20049;-77
2022/04/29 08:25:38;;;;;;;5.88;2.72;;;11.90;56.80;;;;;;5036041;28;20041;-77
2022/04/29 08:28:04;;;;;;;9.70;3.45;;;12.00;56.70;;;;;;5034714;28;20103;-77
2022/04/29 08:30:31;;;;;;;10.30;4.15;;;12.10;55.70;;;;;;5034411;28;20049;-77
2022/04/29 08:32:59;;;;;;;5.65;3.25;;;12.10;55.70;;;;;;5034330;28;20045;-76
2022/04/29 08:35:26;;;;;;;7.07;3.90;;;12.10;55.70;;;;;;5035747;28;20050;-77
2022/04/29 08:37:54;;;;;;;6.07;2.92;;;12.10;55.60;;;;;;5035512;28;20042;-76
2022/04/29 08:40:20;;;;;;;7.18;3.65;;;12.10;55.20;;;;;;5034363;28;20072;-76
2022/04/29 08:42:46;;;;;;;5.32;3.53;;;12.10;55.10;;;;;;5035753;28;20437;-78
2022/04/29 08:45:14;;;;;;;8.75;3.40;;;12.10;55.30;;;;;;5067639;28;20042;-78
2022/04/29 08:47:42;;;;;;;7.63;3.33;;;12.20;55.20;;;;;;5035648;28;20056;-77
2022/04/29 08:50:10;;;;;;;5.80;2.90;;;12.20;55.20;;;;;;5035396;28;20044;-77
2022/04/29 08:52:37;;;;;;;4.55;3.50;;;12.20;54.90;;;;;;5033881;28;20059;-76
2022/04/29 09:00:33;;;;;;;4.13;2.53;;;12.40;54.60;;;;;;5034004;28;20045;-78
2022/04/29 09:03:02;;;;;;;8.15;3.35;;;12.30;55.30;;;;;;5033793;28;20056;-77
2022/04/29 09:05:27;;;;;;;6.97;3.33;;;12.30;55.50;;;;;;5034333;28;20057;-77
2022/04/29 09:08:01;;;;;;;6.93;3.13;;;12.40;55.20;;;;;;5035185;28;20041;-77
2022/04/29 09:10:29;;;;;;;6.10;3.00;;;12.40;54.20;;;;;;5035196;28;20388;-78
2022/04/29 09:13:08;;;;;;;5.18;2.50;;;12.40;54.40;;;;;;5034825;28;20132;-76
2022/04/29 09:15:34;;;;;;;6.03;2.78;;;12.40;54.20;;;;;;5066935;28;20060;-77
2022/04/29 09:18:00;;;;;;;5.93;3.10;;;12.40;54.20;;;;;;5033734;28;20096;-78
2022/04/29 09:20:26;;;;;;;6.00;2.80;;;12.20;53.90;;;;;;5034410;28;20083;-79
2022/04/29 09:22:52;;;;;;;5.45;2.40;;;12.30;54.30;;;;;;5034698;28;20550;-77
2022/04/29 09:25:18;;;;;;;9.15;3.40;;;12.30;54.20;;;;;;5033905;28;20053;-77
2022/04/29 09:28:01;;;;;;;6.75;2.85;;;12.30;54.00;;;;;;5033240;28;20063;-76
2022/04/29 09:30:34;;;;;;;5.35;3.00;;;12.20;53.90;;;;;;5033196;28;20045;-76
2022/04/29 09:33:00;;;;;;;7.88;2.72;;;12.20;54.00;;;;;;5033639;28;20108;-76
2022/04/29 09:35:35;;;;;;;3.50;2.47;;;12.20;54.10;;;;;;5033916;28;20077;-76
2022/04/29 09:40:47;;;;;;;4.72;2.25;;;12.30;54.00;;;;;;5034361;28;20089;-76
2022/04/29 09:43:13;;;;;;;3.38;2.20;;;12.30;53.80;;;;;;5033085;28;20057;-77
2022/04/29 09:45:38;;;;;;;5.65;2.55;;;12.20;53.60;;;;;;5034435;28;20048;-76
2022/04/29 09:48:08;;;;;;;9.25;2.90;;;12.20;53.80;;;;;;5066363;28;20045;-77
2022/04/29 09:50:49;;;;;;;6.80;2.70;;;12.20;53.90;;;;;;5066427;28;20046;-77
2022/04/29 09:53:17;;;;;;;7.13;2.88;;;12.30;54.10;;;;;;5033126;28;20099;-75
2022/04/29 09:56:02;;;;;;;4.75;2.90;;;12.30;54.20;;;;;;5033042;28;20539;-78
2022/04/29 09:58:28;;;;;;;7.63;3.97;;;12.30;53.90;;;;;;5032708;28;20055;-78
2022/04/29 10:00:53;;;;;;;7.75;3.17;;;12.30;53.80;;;;;;5066088;28;20045;-78
2022/04/29 10:03:19;;;;;;;7.75;3.17;;;12.30;53.70;;;;;;5034154;28;20883;-77
2022/04/29 10:05:45;;;;;;;5.45;3.10;;;12.30;54.20;;;;;;5034149;28;20049;-78
2022/04/29 10:08:11;;;;;;;5.32;3.00;;;12.20;54.30;;;;;;5033925;28;20068;-78
2022/04/29 10:10:37;;;;;;;5.13;2.55;;;12.30;54.20;;;;;;5033224;28;20079;-78
2022/04/29 10:13:04;;;;;;;7.93;2.92;;;12.30;54.60;;;;;;5033542;28;20050;-78
2022/04/29 10:15:34;;;;;;;6.95;2.67;;;12.30;54.40;;;;;;5033833;28;20050;-77
2022/04/29 10:23:33;;;;;;;6.05;2.67;;;12.30;53.90;;;;;;5034051;28;20069;-77
2022/04/29 10:26:02;;;;;;;7.70;2.45;;;12.30;53.90;;;;;;5032832;28;20049;-77
2022/04/29 10:28:28;;;;;;;5.03;2.60;;;12.30;53.80;;;;;;5065893;28;20057;-77
2022/04/29 10:31:09;;;;;;;5.18;2.72;;;12.30;53.70;;;;;;5032838;28;20140;-77
2022/04/29 10:33:36;;;;;;;5.18;2.17;;;12.30;53.50;;;;;;5033691;28;20569;-77
2022/04/29 10:36:06;;;;;;;6.40;3.05;;;12.30;54.10;;;;;;5033822;28;20048;-75
2022/04/29 10:38:40;;;;;;;6.63;2.63;;;12.40;54.20;;;;;;5033909;28;20046;-76
2022/04/29 10:41:14;;;;;;;4.88;2.38;;;12.40;54.00;;;;;;5067045;28;20057;-77
2022/04/29 10:43:55;;;;;;;5.25;2.60;;;12.50;54.30;;;;;;5067984;28;20077;-76
2022/04/29 10:46:24;;;;;;;7.20;3.00;;;12.50;54.10;;;;;;5032776;28;20053;-77
2022/04/29 10:48:54;;;;;;;4.57;2.40;;;12.50;54.00;;;;;;5033683;28;20401;-76
2022/04/29 10:51:25;;;;;;;8.98;3.38;;;12.50;54.10;;;;;;5033327;28;20129;-77
2022/04/29 10:53:53;;;;;;;6.03;2.70;;;12.50;54.20;;;;;;5033554;28;20389;-77
2022/04/29 10:56:28;;;;;;;5.82;2.50;;;12.50;54.10;;;;;;5032418;28;20147;-77
2022/04/29 10:59:09;;;;;;;7.93;3.17;;;12.50;54.20;;;;;;5065432;28;20489;-77
2022/04/29 11:01:36;;;;;;;5.88;2.40;;;12.50;53.90;;;;;;5032961;28;20053;-76
2022/04/29 11:04:31;;;;;;;5.70;2.50;;;12.50;54.00;;;;;;5032764;28;20045;-77
2022/04/29 11:06:57;;;;;;;8.23;2.70;;;12.50;53.90;;;;;;5033423;28;20060;-78
2022/04/29 11:09:27;;;;;;;11.25;2.65;;;12.50;54.10;;;;;;5033397;28;20042;-77
2022/04/29 11:11:54;;;;;;;8.25;2.80;;;12.50;54.20;;;;;;5033651;28;20041;-78
2022/04/29 11:14:19;;;;;;;6.95;2.05;;;12.50;54.40;;;;;;5033409;28;20041;-78
2022/04/29 11:16:58;;;;;;;6.22;2.40;;;12.60;53.90;;;;;;5033403;28;20056;-78
2022/04/29 11:19:27;;;;;;;6.53;2.78;;;12.50;53.40;;;;;;5032087;28;20070;-78
2022/04/29 11:24:53;;;;;;;24.13;4.07;;;12.60;53.60;;;;;;5034161;28;20133;-80
2022/04/29 11:27:30;;;;;;;6.30;2.65;;;12.60;53.60;;;;;;5035751;28;20056;-80
2022/04/29 11:30:01;;;;;;;13.48;3.38;;;12.50;53.60;;;;;;5035606;28;20054;-80
2022/04/29 11:32:27;;;;;;;7.85;3.10;;;12.50;53.50;;;;;;5068726;28;20081;-80
2022/04/29 11:34:54;;;;;;;6.70;2.70;;;12.50;53.70;;;;;;5036685;28;20523;-81
2022/04/29 11:37:24;;;;;;;5.80;2.67;;;12.50;53.50;;;;;;5036798;28;20096;-80
2022/04/29 11:40:00;;;;;;;4.93;3.15;;;12.50;53.30;;;;;;5068917;28;20041;-79
2022/04/29 11:42:27;;;;;;;4.90;2.90;;;12.40;53.20;;;;;;5035341;28;20046;-77
2022/04/29 11:44:53;;;;;;;7.80;3.30;;;12.40;53.50;;;;;;5035290;28;20511;-77
2022/04/29 11:47:26;;;;;;;6.85;3.50;;;12.40;53.50;;;;;;5036624;28;20046;-78
2022/04/29 11:49:52;;;;;;;5.03;3.25;;;12.30;53.50;;;;;;5068413;28;20124;-77
2022/04/29 11:52:20;;;;;;;7.85;3.17;;;12.30;54.00;;;;;;5036769;28;20037;-77
2022/04/29 11:54:53;;;;;;;3.90;2.75;;;12.30;54.30;;;;;;5036509;28;20073;-77
2022/04/29 11:57:24;;;;;;;6.05;3.33;;;12.30;54.60;;;;;;5068364;28;20121;-77
2022/04/29 11:59:50;;;;;;;6.55;3.47;;;12.30;54.50;;;;;;5036285;28;20508;-77
2022/04/29 12:02:18;;;;;;;6.25;3.45;;;12.40;54.30;;;;;;5036355;28;20060;-77
2022/04/29 12:04:57;;;;;;;6.85;4.00;;;12.40;53.60;;;;;;5036438;28;20053;-76
2022/04/29 12:07:24;;;;;;;8.27;3.80;;;12.40;53.90;;;;;;5035031;28;20519;-77
2022/04/29 12:09:51;;;;;;;11.00;4.50;;;12.30;53.90;;;;;;5036101;28;20060;-77
2022/04/29 12:12:23;;;;;;;6.25;4.05;;;12.40;54.00;;;;;;5036148;28;20129;-77
2022/04/29 12:14:49;;;;;;;5.88;3.08;;;12.30;54.00;;;;;;5036051;28;20052;-77
2022/04/29 12:17:18;;;;;;;7.72;3.80;;;12.40;54.00;;;;;;5035619;28;20417;-78
2022/04/29 12:19:45;;;;;;;10.32;4.55;;;12.40;54.30;;;;;;5051416;28;20440;-78
2022/04/29 12:22:27;;;;;;;6.97;3.80;;;12.40;53.70;;;;;;5034442;28;20152;-77
2022/04/29 12:24:53;;;;;;;6.63;4.20;;;12.40;53.60;;;;;;5067835;28;20515;-77
2022/04/29 12:27:28;;;;;;;5.95;3.90;;;12.40;53.70;;;;;;5034459;28;20045;-77
2022/04/29 12:35:27;;;;;;;4.85;4.25;;;12.40;54.30;;;;;;5033374;28;20485;-77
2022/04/29 12:37:54;;;;;;;5.95;4.85;;;12.40;54.00;;;;;;5067523;28;20088;-76
2022/04/29 12:40:30;;;;;;;8.60;3.85;;;12.50;54.10;;;;;;5018008;28;20370;-77
2022/04/29 12:43:09;;;;;;;5.53;4.38;;;12.50;53.50;;;;;;5035512;28;20396;-76
2022/04/29 12:45:35;;;;;;;6.78;4.30;;;12.50;53.70;;;;;;5035304;28;20084;-77
2022/04/29 12:48:04;;;;;;;5.15;3.78;;;12.60;54.20;;;;;;5035629;28;20046;-77
2022/04/29 12:50:50;;;;;;;9.05;4.55;;;12.60;53.80;;;;;;5035430;28;20042;-77
2022/04/29 12:53:17;;;;;;;6.65;4.55;;;12.70;53.10;;;;;;5035346;28;20440;-77
2022/04/29 12:55:43;;;;;;;5.88;4.50;;;12.70;53.00;;;;;;5035325;28;20094;-77
2022/04/29 12:58:20;;;;;;;7.03;4.10;;;12.70;53.10;;;;;;5035175;28;20045;-77
2022/04/29 13:01:07;;;;;;;6.38;3.70;;;12.80;53.10;;;;;;5035402;28;20088;-76
2022/04/29 13:03:34;;;;;;;5.93;4.00;;;12.80;53.00;;;;;;5033706;28;20572;-77
2022/04/29 13:06:01;;;;;;;5.72;3.78;;;12.90;52.20;;;;;;5034114;28;20497;-77
2022/04/29 13:08:27;;;;;;;6.15;4.10;;;12.90;52.30;;;;;;5017458;28;20433;-76
2022/04/29 13:10:58;;;;;;;6.20;3.83;;;13.00;52.50;;;;;;5035328;28;20092;-77
2022/04/29 13:13:26;;;;;;;5.97;4.18;;;13.00;52.20;;;;;;5034098;28;20050;-76
2022/04/29 13:15:52;;;;;;;5.88;3.72;;;13.00;51.90;;;;;;5067308;28;20065;-76
2022/04/29 13:18:19;;;;;;;5.85;4.22;;;13.00;51.40;;;;;;5033841;28;20053;-76
2022/04/29 13:20:45;;;;;;;7.20;3.92;;;13.10;51.30;;;;;;5034562;28;20057;-75
2022/04/29 13:23:12;;;;;;;4.45;3.60;;;13.10;51.10;;;;;;5033555;28;20091;-78
2022/04/29 13:25:38;;;;;;;9.07;3.90;;;13.10;50.70;;;;;;5034765;28;20042;-76
2022/04/29 13:28:05;;;;;;;8.43;3.60;;;13.10;50.40;;;;;;5034969;28;20473;-76
2022/04/29 13:30:31;;;;;;;7.65;4.22;;;13.20;50.50;;;;;;5033623;28;20477;-77
2022/04/29 13:32:57;;;;;;;7.03;3.80;;;13.10;51.20;;;;;;5066763;28;20116;-77
2022/04/29 13:35:22;;;;;;;6.60;3.75;;;13.10;51.00;;;;;;5034598;28;20124;-75